Perkins, Iowa
Current Conditions -  °F | °C
As of 9:35 AM on Friday 24 Oct 2014 (Local Time) from KSHL Reporting Station
Haze Haze  
Wind Chill: 54°   Ceiling: Unl
Heat Index: 54°   Visibility: 4mi
Dew Point: 54°   Wind: 6mph
Humidity: 100%   Direction: 220°SW
Pressure: 29.88"   Gusts: NA
Location:  43.2144°N, 96.157°W
Report Text: KSHL 241435Z AUTO 22005KT 4SM BR CLR 12/12 A2988 RMK AO2
Loading
Personal Weather Stations






























Interactive Weather Map
Tropical Storm Tracking
New forecast layout! Learn more

10-Day Weather Forecast

Advertisements
Track Severe Weather on mobile